createdAt,value
2022-09-18T00:01:42.006Z,14.20
2022-09-18T00:04:13.851Z,14.30
2022-09-18T00:06:44.566Z,14.30
2022-09-18T00:09:14.374Z,14.20
2022-09-18T00:11:47.010Z,14.20
2022-09-18T00:14:18.000Z,14.20
2022-09-18T00:16:46.137Z,14.20
2022-09-18T00:19:15.204Z,14.20
2022-09-18T00:21:44.930Z,14.20
2022-09-18T00:24:13.570Z,14.10
2022-09-18T00:26:43.603Z,14.10
2022-09-18T00:29:12.367Z,14.10
2022-09-18T00:31:40.752Z,14.10
2022-09-18T00:34:11.756Z,14.10
2022-09-18T00:36:40.535Z,14.10
2022-09-18T00:39:09.547Z,14.10
2022-09-18T00:41:40.017Z,14.10
2022-09-18T00:44:37.517Z,14.30
2022-09-18T00:47:21.489Z,14.10
2022-09-18T00:49:55.774Z,14.40
2022-09-18T00:52:28.119Z,14.10
2022-09-18T00:55:01.307Z,14.10
2022-09-18T00:57:33.976Z,14.10
2022-09-18T01:00:05.879Z,14.10
2022-09-18T01:02:34.812Z,14.10
2022-09-18T01:05:03.245Z,14.10
2022-09-18T01:07:42.659Z,14.10
2022-09-18T01:10:23.675Z,14.10
2022-09-18T01:12:56.295Z,14.20
2022-09-18T01:15:34.875Z,14.10
2022-09-18T01:18:12.323Z,14.10
2022-09-18T01:20:52.876Z,14.10
2022-09-18T01:23:55.589Z,14.10
2022-09-18T01:26:39.183Z,14.10
2022-09-18T01:29:14.860Z,14.10
2022-09-18T01:31:49.455Z,14.10
2022-09-18T01:34:23.306Z,14.10
2022-09-18T01:36:56.262Z,14.10
2022-09-18T01:39:30.391Z,14.10
2022-09-18T01:42:00.040Z,14.10
2022-09-18T01:44:32.149Z,14.10
2022-09-18T01:47:07.620Z,14.10
2022-09-18T01:49:43.016Z,14.10
2022-09-18T01:52:15.524Z,14.10
2022-09-18T01:54:49.865Z,14.20
2022-09-18T01:57:23.373Z,14.10
2022-09-18T01:59:57.603Z,14.10
2022-09-18T02:02:32.409Z,14.10
2022-09-18T02:05:03.627Z,14.10
2022-09-18T02:07:38.405Z,14.10
2022-09-18T02:10:08.308Z,14.10
2022-09-18T02:12:41.366Z,14.10
2022-09-18T02:15:14.698Z,14.10
2022-09-18T02:18:16.198Z,14.10
2022-09-18T02:20:45.987Z,14.10
2022-09-18T02:23:15.078Z,14.00
2022-09-18T02:25:47.101Z,14.10
2022-09-18T02:28:18.315Z,14.00
2022-09-18T02:30:48.347Z,14.10
2022-09-18T02:33:30.426Z,14.20
2022-09-18T02:36:36.338Z,14.30
2022-09-18T02:39:18.732Z,14.10
2022-09-18T02:41:56.395Z,14.00
2022-09-18T02:44:33.438Z,14.10
2022-09-18T02:47:15.777Z,14.10
2022-09-18T02:49:56.237Z,14.00
2022-09-18T02:52:28.507Z,14.00
2022-09-18T02:55:03.411Z,14.10
2022-09-18T02:57:38.166Z,14.00
2022-09-18T03:00:12.655Z,14.10
2022-09-18T03:02:43.655Z,14.00
2022-09-18T03:05:13.837Z,14.00
2022-09-18T03:07:49.775Z,14.00
2022-09-18T03:10:18.111Z,14.00
2022-09-18T03:12:46.700Z,14.00
2022-09-18T03:15:17.256Z,14.00
2022-09-18T03:17:46.770Z,14.00
2022-09-18T03:20:15.053Z,14.00
2022-09-18T03:22:43.246Z,14.00
2022-09-18T03:25:14.326Z,14.00
2022-09-18T03:27:43.521Z,14.00
2022-09-18T03:30:16.295Z,14.00
2022-09-18T03:32:45.834Z,14.00
2022-09-18T03:35:14.920Z,14.00
2022-09-18T03:37:43.189Z,14.00
2022-09-18T03:40:15.919Z,14.00
2022-09-18T03:42:46.147Z,14.00
2022-09-18T03:45:14.632Z,13.90
2022-09-18T03:47:44.121Z,13.90
2022-09-18T03:50:15.105Z,13.90
2022-09-18T03:52:46.583Z,13.90
2022-09-18T03:55:43.506Z,13.90
2022-09-18T03:58:23.744Z,13.90
2022-09-18T04:01:30.422Z,13.90
2022-09-18T04:04:28.526Z,13.90
2022-09-18T04:07:18.267Z,13.90
2022-09-18T04:10:12.948Z,14.10
2022-09-18T04:12:41.698Z,13.90
2022-09-18T04:15:20.947Z,14.00
2022-09-18T04:17:53.571Z,14.00
2022-09-18T04:20:21.865Z,14.00
2022-09-18T04:22:55.616Z,14.00
2022-09-18T04:25:24.777Z,14.00
2022-09-18T04:27:58.145Z,14.10
2022-09-18T04:30:31.745Z,14.00
2022-09-18T04:33:00.676Z,14.00
2022-09-18T04:35:31.422Z,14.10
2022-09-18T04:38:04.954Z,14.00
2022-09-18T04:40:36.598Z,14.00
2022-09-18T04:43:06.885Z,14.00
2022-09-18T04:45:35.177Z,14.10
2022-09-18T04:48:13.136Z,14.10
2022-09-18T04:50:44.102Z,13.90
2022-09-18T04:53:21.113Z,14.10
2022-09-18T04:55:55.001Z,14.00
2022-09-18T04:58:25.704Z,14.00
2022-09-18T05:01:04.225Z,14.10
2022-09-18T05:03:38.333Z,14.10
2022-09-18T05:06:11.515Z,14.10
2022-09-18T05:08:41.122Z,14.10
2022-09-18T05:11:12.306Z,14.10
2022-09-18T05:13:46.360Z,14.00
2022-09-18T05:16:21.955Z,14.00
2022-09-18T05:19:07.535Z,14.00
2022-09-18T05:21:41.699Z,14.40
2022-09-18T05:24:20.212Z,14.00
2022-09-18T05:26:55.413Z,14.00
2022-09-18T05:29:27.720Z,14.00
2022-09-18T05:32:07.837Z,14.00
2022-09-18T05:34:37.872Z,14.10
2022-09-18T05:37:23.624Z,14.00
2022-09-18T05:39:58.913Z,14.00
2022-09-18T05:42:31.647Z,14.00
2022-09-18T05:45:02.059Z,14.00
2022-09-18T05:47:32.474Z,14.00
2022-09-18T05:50:01.676Z,14.00
2022-09-18T05:52:29.975Z,14.00
2022-09-18T05:54:59.886Z,14.00
2022-09-18T05:57:28.675Z,14.10
2022-09-18T05:59:56.905Z,14.00
2022-09-18T06:02:25.152Z,14.00
2022-09-18T06:05:19.534Z,14.00
2022-09-18T06:07:47.752Z,14.00
2022-09-18T06:10:23.270Z,14.00
2022-09-18T06:12:51.558Z,14.00
2022-09-18T06:15:19.845Z,14.00
2022-09-18T06:17:53.018Z,14.00
2022-09-18T06:20:21.949Z,14.00
2022-09-18T06:22:51.258Z,14.00
2022-09-18T06:25:30.894Z,14.00
2022-09-18T06:28:01.727Z,14.30
2022-09-18T06:30:32.120Z,14.00
2022-09-18T06:33:02.676Z,13.80
2022-09-18T06:35:31.135Z,14.00
2022-09-18T06:38:03.114Z,14.00
2022-09-18T06:40:52.341Z,14.10
2022-09-18T06:43:25.841Z,14.00
2022-09-18T06:46:04.498Z,14.00
2022-09-18T06:48:39.592Z,14.10
2022-09-18T06:51:09.526Z,14.10
2022-09-18T06:53:58.079Z,14.00
2022-09-18T06:56:27.902Z,14.00
2022-09-18T06:58:56.431Z,14.00
2022-09-18T07:01:24.887Z,14.10
2022-09-18T07:04:05.432Z,14.10
2022-09-18T07:06:38.916Z,14.00
2022-09-18T07:09:07.641Z,14.20
2022-09-18T07:12:09.417Z,14.10
2022-09-18T07:14:51.630Z,14.10
2022-09-18T07:17:24.377Z,14.00
2022-09-18T07:19:55.470Z,14.00
2022-09-18T07:22:29.402Z,14.00
2022-09-18T07:24:57.690Z,14.00
2022-09-18T07:27:27.285Z,14.00
2022-09-18T07:29:57.101Z,14.00
2022-09-18T07:32:25.489Z,14.10
2022-09-18T07:34:53.758Z,14.00
2022-09-18T07:37:29.920Z,14.00
2022-09-18T07:40:12.884Z,14.00
2022-09-18T07:43:02.309Z,14.10
2022-09-18T07:45:30.849Z,14.10
2022-09-18T07:48:02.186Z,14.10
2022-09-18T07:50:31.851Z,14.10
2022-09-18T07:53:02.186Z,14.60
2022-09-18T07:55:36.902Z,14.20
2022-09-18T07:58:08.214Z,14.20
2022-09-18T08:00:52.196Z,14.20
2022-09-18T08:03:22.338Z,14.20
2022-09-18T08:06:07.948Z,14.20
2022-09-18T08:08:37.145Z,14.20
2022-09-18T08:11:15.580Z,14.20
2022-09-18T08:14:05.479Z,14.20
2022-09-18T08:16:40.899Z,14.20
2022-09-18T08:19:41.564Z,14.20
2022-09-18T08:22:15.329Z,14.20
2022-09-18T08:24:51.496Z,14.20
2022-09-18T08:27:20.744Z,14.20
2022-09-18T08:29:50.614Z,14.60
2022-09-18T08:32:18.881Z,14.30
2022-09-18T08:34:47.059Z,14.20
2022-09-18T08:37:17.774Z,14.30
2022-09-18T08:40:21.360Z,14.20
2022-09-18T08:43:07.745Z,14.20
2022-09-18T08:45:52.348Z,14.30
2022-09-18T08:48:25.628Z,14.20
2022-09-18T08:51:00.362Z,14.30
2022-09-18T08:53:34.988Z,14.30
2022-09-18T08:56:25.789Z,14.30
2022-09-18T08:59:18.064Z,14.30
2022-09-18T09:01:56.723Z,14.30
2022-09-18T09:04:28.811Z,14.30
2022-09-18T09:07:14.309Z,14.30
2022-09-18T09:10:04.439Z,14.30
2022-09-18T09:12:44.302Z,14.30
2022-09-18T09:15:25.968Z,14.40
2022-09-18T09:18:16.352Z,14.40
2022-09-18T09:20:52.307Z,14.30
2022-09-18T09:23:42.889Z,14.40
2022-09-18T09:26:23.075Z,14.40
2022-09-18T09:29:15.980Z,14.40
2022-09-18T09:31:57.029Z,14.40
2022-09-18T09:34:31.893Z,14.40
2022-09-18T09:37:15.258Z,14.40
2022-09-18T09:39:46.894Z,14.40
2022-09-18T09:42:22.569Z,14.40
2022-09-18T09:44:56.130Z,14.30
2022-09-18T09:47:31.231Z,14.30
2022-09-18T09:50:13.087Z,14.40
2022-09-18T09:52:47.230Z,14.40
2022-09-18T09:55:23.239Z,14.30
2022-09-18T09:58:05.476Z,14.40
2022-09-18T10:00:38.150Z,14.40
2022-09-18T10:03:39.544Z,14.40
2022-09-18T10:06:28.434Z,14.40
2022-09-18T10:09:03.950Z,14.40
2022-09-18T10:11:36.995Z,14.50
2022-09-18T10:14:12.087Z,14.50
2022-09-18T10:16:43.845Z,14.50
2022-09-18T10:19:18.180Z,14.60
2022-09-18T10:21:48.370Z,14.60
2022-09-18T10:24:28.373Z,14.60
2022-09-18T10:27:07.272Z,14.60
2022-09-18T10:29:36.707Z,14.60
2022-09-18T10:32:11.158Z,14.60
2022-09-18T10:34:45.185Z,14.60
2022-09-18T10:37:18.694Z,14.60
2022-09-18T10:39:53.030Z,14.60
2022-09-18T10:42:25.361Z,14.60
2022-09-18T10:45:03.699Z,14.60
2022-09-18T10:47:37.563Z,14.60
2022-09-18T10:50:20.521Z,14.60
2022-09-18T10:52:54.460Z,14.60
2022-09-18T10:55:29.387Z,14.60
2022-09-18T10:58:13.992Z,14.60
2022-09-18T11:00:50.124Z,14.60
2022-09-18T11:03:23.580Z,14.60
2022-09-18T11:05:58.408Z,14.70
2022-09-18T11:08:31.080Z,14.70
2022-09-18T11:11:07.193Z,14.70
2022-09-18T11:13:52.001Z,14.70
2022-09-18T11:16:29.712Z,14.70
2022-09-18T11:19:07.132Z,14.70
2022-09-18T11:21:47.191Z,14.70
2022-09-18T11:24:24.082Z,14.70
2022-09-18T11:26:57.935Z,14.70
2022-09-18T11:29:31.721Z,14.70
2022-09-18T11:32:07.970Z,14.70
2022-09-18T11:34:39.427Z,14.70
2022-09-18T11:37:14.453Z,14.70
2022-09-18T11:39:50.846Z,14.80
2022-09-18T11:42:19.642Z,14.80
2022-09-18T11:44:49.598Z,14.80
2022-09-18T11:47:26.921Z,14.80
2022-09-18T11:50:06.359Z,14.80
2022-09-18T11:52:39.646Z,14.80
2022-09-18T11:55:22.174Z,14.70
2022-09-18T11:57:54.628Z,14.80
2022-09-18T12:00:31.398Z,14.40
2022-09-18T12:03:12.560Z,14.30
2022-09-18T12:05:52.403Z,14.20
2022-09-18T12:08:35.407Z,14.10
2022-09-18T12:11:18.416Z,14.00
2022-09-18T12:13:59.685Z,14.00
2022-09-18T12:16:41.911Z,14.00
2022-09-18T12:19:17.442Z,13.90
2022-09-18T12:21:52.250Z,13.90
2022-09-18T12:24:20.714Z,13.90
2022-09-18T12:27:03.319Z,13.90
2022-09-18T12:30:01.304Z,14.00
2022-09-18T12:32:41.890Z,14.00
2022-09-18T12:35:19.262Z,13.90
2022-09-18T12:37:56.916Z,14.20
2022-09-18T12:40:38.144Z,13.90
2022-09-18T12:43:28.028Z,13.90
2022-09-18T12:46:17.582Z,14.00
2022-09-18T12:49:00.429Z,13.90
2022-09-18T12:51:47.209Z,14.00
2022-09-18T12:54:35.889Z,14.00
2022-09-18T12:57:28.576Z,14.00
2022-09-18T13:00:04.795Z,14.10
2022-09-18T13:02:43.733Z,14.10
2022-09-18T13:05:17.785Z,14.10
2022-09-18T13:07:52.072Z,14.10
2022-09-18T13:10:24.168Z,14.20
2022-09-18T13:12:59.387Z,14.20
2022-09-18T13:15:33.693Z,14.20
2022-09-18T13:18:16.191Z,14.20
2022-09-18T13:20:46.925Z,14.20
2022-09-18T13:23:19.329Z,14.30
2022-09-18T13:25:50.851Z,14.30
2022-09-18T13:28:21.948Z,14.30
2022-09-18T13:31:28.839Z,14.30
2022-09-18T13:33:59.221Z,14.30
2022-09-18T13:36:30.380Z,14.30
2022-09-18T13:39:02.639Z,14.30
2022-09-18T13:41:42.625Z,14.40
2022-09-18T13:44:19.404Z,14.30
2022-09-18T13:46:50.079Z,14.30
2022-09-18T13:49:23.450Z,14.30
2022-09-18T13:51:51.801Z,14.30
2022-09-18T13:54:24.153Z,14.30
2022-09-18T13:57:14.884Z,14.20
2022-09-18T13:59:48.380Z,14.20
2022-09-18T14:02:33.166Z,14.30
2022-09-18T14:05:27.636Z,14.20
2022-09-18T14:08:10.723Z,14.20
2022-09-18T14:10:54.892Z,14.20
2022-09-18T14:13:55.306Z,14.20
2022-09-18T14:16:43.660Z,14.20
2022-09-18T14:19:33.089Z,14.20
2022-09-18T14:22:02.439Z,14.20
2022-09-18T14:24:40.367Z,14.20
2022-09-18T14:27:35.715Z,14.20
2022-09-18T14:30:13.932Z,14.30
2022-09-18T14:32:46.761Z,14.20
2022-09-18T14:35:33.203Z,14.30
2022-09-18T14:38:01.467Z,14.30
2022-09-18T14:40:31.956Z,14.30
2022-09-18T14:43:00.127Z,14.50
2022-09-18T14:45:30.826Z,14.20
2022-09-18T14:48:00.379Z,14.20
2022-09-18T14:50:33.780Z,14.30
2022-09-18T14:53:04.251Z,14.30
2022-09-18T14:55:36.181Z,14.30
2022-09-18T14:58:08.428Z,14.20
2022-09-18T15:00:39.295Z,14.20
2022-09-18T15:03:15.096Z,14.40
2022-09-18T15:05:44.847Z,14.20
2022-09-18T15:08:18.687Z,14.20
2022-09-18T15:10:50.739Z,14.10
2022-09-18T15:13:20.632Z,14.20
2022-09-18T15:15:58.436Z,14.10
2022-09-18T15:18:29.534Z,14.10
2022-09-18T15:21:01.832Z,14.10
2022-09-18T15:23:33.394Z,14.10
2022-09-18T15:26:03.954Z,14.00
2022-09-18T15:28:35.522Z,14.00
2022-09-18T15:31:05.919Z,14.00
2022-09-18T15:33:35.944Z,14.00
2022-09-18T15:36:06.569Z,14.00
2022-09-18T15:38:41.847Z,13.90
2022-09-18T15:41:35.843Z,14.30
2022-09-18T15:44:04.237Z,13.80
2022-09-18T15:46:34.631Z,13.80
2022-09-18T15:49:05.009Z,13.80
2022-09-18T15:51:36.041Z,13.80
2022-09-18T15:54:27.589Z,13.80
2022-09-18T15:56:57.949Z,13.80
2022-09-18T15:59:31.399Z,13.80
2022-09-18T16:02:01.482Z,13.70
2022-09-18T16:04:33.061Z,13.70
2022-09-18T16:07:05.555Z,13.70
2022-09-18T16:09:38.259Z,13.70
2022-09-18T16:12:26.526Z,13.60
2022-09-18T16:15:03.589Z,13.90
2022-09-18T16:17:55.106Z,13.70
2022-09-18T16:20:35.550Z,13.70
2022-09-18T16:23:26.884Z,13.70
2022-09-18T16:26:08.024Z,13.70
2022-09-18T16:28:38.336Z,13.60
2022-09-18T16:31:06.823Z,13.60
2022-09-18T16:33:35.910Z,13.70
2022-09-18T16:36:07.797Z,13.60
2022-09-18T16:38:37.789Z,13.70
2022-09-18T16:41:06.158Z,13.60
2022-09-18T16:43:35.828Z,13.60
2022-09-18T16:46:04.061Z,13.60
2022-09-18T16:48:33.340Z,13.70
2022-09-18T16:51:01.523Z,13.60
2022-09-18T16:53:29.921Z,13.60
2022-09-18T16:56:03.535Z,13.60
2022-09-18T16:58:31.911Z,13.60
2022-09-18T17:01:00.533Z,13.60
2022-09-18T17:03:29.147Z,13.60
2022-09-18T17:05:57.938Z,13.60
2022-09-18T17:08:26.186Z,13.60
2022-09-18T17:10:54.404Z,13.60
2022-09-18T17:13:24.027Z,13.60
2022-09-18T17:15:52.327Z,13.50
2022-09-18T17:18:20.558Z,13.50
2022-09-18T17:20:48.824Z,13.40
2022-09-18T17:23:17.169Z,13.70
2022-09-18T17:25:45.491Z,13.50
2022-09-18T17:28:17.644Z,13.40
2022-09-18T17:30:47.632Z,13.30
2022-09-18T17:33:19.803Z,13.30
2022-09-18T17:35:48.562Z,13.20
2022-09-18T17:38:17.388Z,13.20
2022-09-18T17:40:57.173Z,13.10
2022-09-18T17:43:25.566Z,13.10
2022-09-18T17:45:59.708Z,13.00
2022-09-18T17:48:30.137Z,13.00
2022-09-18T17:51:02.739Z,13.00
2022-09-18T17:53:32.088Z,13.00
2022-09-18T17:56:00.644Z,13.00
2022-09-18T17:58:29.675Z,13.10
2022-09-18T18:01:00.232Z,13.10
2022-09-18T18:03:29.214Z,13.10
2022-09-18T18:05:58.870Z,13.10
2022-09-18T18:08:28.272Z,13.20
2022-09-18T18:10:57.767Z,13.20
2022-09-18T18:13:25.931Z,13.20
2022-09-18T18:15:54.369Z,13.20
2022-09-18T18:18:24.078Z,13.50
2022-09-18T18:20:52.921Z,13.20
2022-09-18T18:23:21.464Z,13.30
2022-09-18T18:25:49.743Z,13.30
2022-09-18T18:28:17.859Z,13.30
2022-09-18T18:30:46.244Z,13.50
2022-09-18T18:33:14.721Z,13.30
2022-09-18T18:35:44.283Z,13.30
2022-09-18T18:38:12.587Z,13.30
2022-09-18T18:40:40.739Z,13.30
2022-09-18T18:43:14.157Z,13.30
2022-09-18T18:45:52.364Z,13.30
2022-09-18T18:48:20.605Z,13.30
2022-09-18T18:50:50.678Z,13.60
2022-09-18T18:53:18.789Z,13.30
2022-09-18T18:55:49.203Z,13.30
2022-09-18T18:58:17.579Z,13.30
2022-09-18T19:00:46.392Z,13.30
2022-09-18T19:03:14.965Z,13.30
2022-09-18T19:05:43.138Z,13.30
2022-09-18T19:08:14.086Z,13.30
2022-09-18T19:10:42.372Z,13.30
2022-09-18T19:13:10.629Z,13.30
2022-09-18T19:15:38.726Z,13.20
2022-09-18T19:18:07.088Z,13.50
2022-09-18T19:20:35.684Z,13.20
2022-09-18T19:23:04.724Z,13.20
2022-09-18T19:25:35.816Z,13.20
2022-09-18T19:28:07.522Z,13.20
2022-09-18T19:30:43.291Z,13.20
2022-09-18T19:33:26.458Z,13.20
2022-09-18T19:35:57.546Z,12.80
2022-09-18T19:38:26.120Z,13.20
2022-09-18T19:40:56.029Z,13.10
2022-09-18T19:43:34.321Z,13.10
2022-09-18T19:46:11.273Z,13.10
2022-09-18T19:48:45.524Z,13.10
2022-09-18T19:51:15.968Z,13.10
2022-09-18T19:53:47.383Z,13.10
2022-09-18T19:56:42.173Z,13.10
2022-09-18T19:59:11.827Z,13.10
2022-09-18T20:01:40.872Z,13.30
2022-09-18T20:04:11.225Z,13.10
2022-09-18T20:06:44.347Z,13.10
2022-09-18T20:09:17.547Z,13.10
2022-09-18T20:11:51.844Z,13.00
2022-09-18T20:14:26.358Z,13.00
2022-09-18T20:16:59.507Z,13.00
2022-09-18T20:19:33.126Z,13.00
2022-09-18T20:22:06.305Z,13.00
2022-09-18T20:24:34.875Z,13.00
2022-09-18T20:27:04.746Z,13.00
2022-09-18T20:29:33.599Z,13.00
2022-09-18T20:32:02.786Z,13.00
2022-09-18T20:34:30.989Z,13.00
2022-09-18T20:37:01.801Z,13.00
2022-09-18T20:39:30.155Z,13.00
2022-09-18T20:42:00.849Z,13.20
2022-09-18T20:44:32.177Z,12.90
2022-09-18T20:47:00.399Z,12.90
2022-09-18T20:49:30.891Z,13.00
2022-09-18T20:52:00.994Z,12.90
2022-09-18T20:54:30.054Z,12.90
2022-09-18T20:57:01.300Z,12.90
2022-09-18T20:59:31.449Z,12.90
2022-09-18T21:02:00.120Z,12.90
2022-09-18T21:04:29.077Z,12.90
2022-09-18T21:06:57.433Z,12.90
2022-09-18T21:09:27.117Z,13.30
2022-09-18T21:11:59.205Z,12.90
2022-09-18T21:14:27.639Z,12.90
2022-09-18T21:16:57.566Z,12.80
2022-09-18T21:19:26.150Z,12.80
2022-09-18T21:21:54.456Z,13.00
2022-09-18T21:24:23.026Z,12.80
2022-09-18T21:26:51.577Z,12.80
2022-09-18T21:29:22.619Z,12.90
2022-09-18T21:31:52.572Z,13.10
2022-09-18T21:34:24.565Z,12.90
2022-09-18T21:36:57.882Z,12.80
2022-09-18T21:39:28.145Z,12.80
2022-09-18T21:41:58.816Z,12.80
2022-09-18T21:44:28.798Z,12.80
2022-09-18T21:46:58.751Z,12.80
2022-09-18T21:49:29.133Z,12.80
2022-09-18T21:51:58.684Z,12.80
2022-09-18T21:54:27.273Z,12.80
2022-09-18T21:56:56.521Z,12.80
2022-09-18T21:59:26.851Z,12.70
2022-09-18T22:01:55.567Z,12.70
2022-09-18T22:04:26.180Z,12.70
2022-09-18T22:07:01.673Z,12.70
2022-09-18T22:09:31.991Z,12.70
2022-09-18T22:12:01.179Z,12.70
2022-09-18T22:14:32.246Z,12.70
2022-09-18T22:17:01.664Z,12.70
2022-09-18T22:19:30.242Z,12.70
2022-09-18T22:22:02.035Z,12.70
2022-09-18T22:24:30.546Z,12.70
2022-09-18T22:27:00.811Z,12.70
2022-09-18T22:29:30.823Z,12.70
2022-09-18T22:32:01.597Z,12.70
2022-09-18T22:34:32.440Z,12.70
2022-09-18T22:37:03.860Z,12.60
2022-09-18T22:39:32.063Z,12.60
2022-09-18T22:42:03.415Z,12.90
2022-09-18T22:44:31.511Z,12.60
2022-09-18T22:46:59.745Z,12.60
2022-09-18T22:49:27.987Z,12.50
2022-09-18T22:51:56.116Z,12.50
2022-09-18T22:54:27.034Z,12.60
2022-09-18T22:56:56.916Z,12.60
2022-09-18T22:59:27.193Z,12.60
2022-09-18T23:01:57.255Z,12.50
2022-09-18T23:04:29.069Z,12.50
2022-09-18T23:06:59.134Z,12.50
2022-09-18T23:09:29.571Z,12.50
2022-09-18T23:11:58.854Z,12.50
2022-09-18T23:14:28.728Z,12.50
2022-09-18T23:16:57.713Z,12.70
2022-09-18T23:19:28.863Z,12.40
2022-09-18T23:21:57.193Z,12.40
2022-09-18T23:24:26.740Z,12.40
2022-09-18T23:26:58.456Z,12.40
2022-09-18T23:29:28.331Z,12.40
2022-09-18T23:31:58.109Z,12.40
2022-09-18T23:34:29.492Z,12.40
2022-09-18T23:36:58.678Z,12.40
2022-09-18T23:39:28.789Z,12.40
2022-09-18T23:42:01.343Z,12.40
2022-09-18T23:44:31.091Z,12.50
2022-09-18T23:47:01.441Z,12.50
2022-09-18T23:49:30.123Z,12.50
2022-09-18T23:51:59.516Z,12.50
2022-09-18T23:54:32.986Z,12.50
2022-09-18T23:57:04.427Z,12.50
2022-09-18T23:59:32.733Z,12.50
